createdAt,value
2023-11-18T00:00:25.764Z,65.51
2023-11-18T00:02:54.530Z,65.54
2023-11-18T00:05:22.913Z,65.51
2023-11-18T00:07:51.362Z,65.45
2023-11-18T00:10:19.483Z,65.51
2023-11-18T00:12:52.328Z,65.59
2023-11-18T00:15:21.254Z,65.64
2023-11-18T00:17:50.571Z,65.71
2023-11-18T00:20:20.403Z,65.75
2023-11-18T00:22:49.810Z,65.63
2023-11-18T00:25:18.042Z,65.50
2023-11-18T00:27:46.012Z,65.45
2023-11-18T00:30:18.032Z,65.39
2023-11-18T00:32:46.621Z,65.20
2023-11-18T00:35:15.893Z,65.22
2023-11-18T00:37:45.583Z,65.16
2023-11-18T00:40:13.675Z,65.26
2023-11-18T00:42:41.716Z,65.14
2023-11-18T00:45:10.277Z,65.29
2023-11-18T00:47:42.365Z,65.26
2023-11-18T00:50:11.704Z,65.37
2023-11-18T00:52:42.622Z,65.03
2023-11-18T00:55:12.273Z,65.26
2023-11-18T00:57:41.238Z,65.34
2023-11-18T01:00:15.171Z,65.43
2023-11-18T01:02:45.868Z,65.59
2023-11-18T01:05:17.272Z,65.58
2023-11-18T01:07:45.422Z,65.62
2023-11-18T01:10:14.929Z,65.74
2023-11-18T01:12:45.353Z,65.78
2023-11-18T01:15:16.358Z,65.68
2023-11-18T01:17:46.206Z,65.75
2023-11-18T01:20:15.096Z,66.01
2023-11-18T01:22:44.416Z,65.99
2023-11-18T01:25:12.735Z,65.88
2023-11-18T01:27:54.603Z,66.00
2023-11-18T01:30:28.079Z,65.93
2023-11-18T01:32:58.135Z,66.07
2023-11-18T01:35:27.828Z,66.07
2023-11-18T01:37:56.709Z,66.13
2023-11-18T01:40:26.039Z,66.08
2023-11-18T01:42:54.189Z,66.13
2023-11-18T01:45:22.387Z,66.20
2023-11-18T01:47:50.610Z,66.15
2023-11-18T01:50:21.903Z,66.20
2023-11-18T01:53:04.754Z,66.26
2023-11-18T01:55:35.585Z,66.21
2023-11-18T01:58:08.780Z,66.49
2023-11-18T02:01:09.214Z,66.38
2023-11-18T02:03:43.686Z,66.41
2023-11-18T02:06:15.413Z,66.42
2023-11-18T02:08:52.504Z,66.40
2023-11-18T02:11:25.933Z,66.55
2023-11-18T02:13:56.245Z,66.42
2023-11-18T02:16:24.486Z,66.50
2023-11-18T02:18:59.627Z,66.46
2023-11-18T02:21:32.634Z,66.62
2023-11-18T02:24:03.087Z,66.45
2023-11-18T02:26:32.453Z,66.66
2023-11-18T02:29:05.864Z,66.65
2023-11-18T02:31:38.871Z,66.69
2023-11-18T02:34:08.393Z,66.81
2023-11-18T02:36:40.022Z,66.89
2023-11-18T02:39:18.558Z,67.05
2023-11-18T02:41:54.388Z,66.93
2023-11-18T02:44:24.458Z,66.98
2023-11-18T02:46:55.046Z,67.20
2023-11-18T02:49:25.242Z,67.06
2023-11-18T02:51:53.771Z,67.22
2023-11-18T02:54:21.830Z,67.43
2023-11-18T02:56:53.657Z,67.95
2023-11-18T02:59:24.175Z,68.44
2023-11-18T03:01:56.198Z,68.13
2023-11-18T03:04:26.259Z,68.28
2023-11-18T03:06:54.451Z,68.45
2023-11-18T03:09:28.471Z,68.61
2023-11-18T03:12:00.613Z,68.29
2023-11-18T03:14:30.055Z,68.49
2023-11-18T03:16:58.198Z,68.69
2023-11-18T03:19:26.262Z,68.74
2023-11-18T03:21:54.652Z,68.70
2023-11-18T03:24:22.705Z,68.75
2023-11-18T03:26:51.934Z,69.17
2023-11-18T03:29:21.527Z,69.01
2023-11-18T03:31:49.803Z,68.85
2023-11-18T03:34:21.780Z,69.01
2023-11-18T03:36:52.465Z,68.93
2023-11-18T03:39:20.526Z,68.96
2023-11-18T03:41:48.498Z,69.01
2023-11-18T03:44:16.710Z,69.37
2023-11-18T03:46:47.092Z,69.38
2023-11-18T03:49:15.198Z,69.62
2023-11-18T03:51:45.899Z,69.65
2023-11-18T03:54:14.060Z,69.56
2023-11-18T03:56:42.996Z,69.94
2023-11-18T03:59:14.235Z,69.94
2023-11-18T04:01:54.398Z,69.92
2023-11-18T04:04:24.079Z,69.81
2023-11-18T04:06:52.723Z,69.81
2023-11-18T04:09:20.995Z,69.96
2023-11-18T04:11:49.183Z,69.80
2023-11-18T04:14:18.368Z,69.95
2023-11-18T04:16:48.984Z,70.28
2023-11-18T04:19:19.573Z,70.02
2023-11-18T04:21:50.539Z,70.03
2023-11-18T04:24:18.777Z,70.24
2023-11-18T04:26:47.206Z,70.30
2023-11-18T04:29:15.715Z,70.09
2023-11-18T04:31:45.394Z,70.18
2023-11-18T04:34:15.838Z,70.25
2023-11-18T04:36:44.806Z,70.31
2023-11-18T04:39:13.535Z,70.34
2023-11-18T04:41:43.288Z,70.16
2023-11-18T04:44:11.421Z,69.92
2023-11-18T04:46:39.501Z,70.06
2023-11-18T04:49:07.622Z,70.20
2023-11-18T04:51:37.419Z,70.46
2023-11-18T04:54:05.911Z,70.41
2023-11-18T04:56:33.954Z,70.50
2023-11-18T04:59:03.301Z,70.35
2023-11-18T05:01:31.471Z,70.30
2023-11-18T05:04:00.362Z,70.22
2023-11-18T05:06:28.730Z,70.38
2023-11-18T05:08:59.201Z,70.25
2023-11-18T05:11:27.223Z,70.28
2023-11-18T05:13:55.264Z,70.32
2023-11-18T05:16:23.312Z,70.31
2023-11-18T05:18:51.239Z,70.28
2023-11-18T05:21:19.779Z,70.37
2023-11-18T05:23:47.784Z,70.36
2023-11-18T05:26:20.393Z,70.31
2023-11-18T05:28:50.124Z,70.35
2023-11-18T05:31:21.078Z,70.37
2023-11-18T05:33:56.498Z,70.30
2023-11-18T05:36:28.880Z,70.73
2023-11-18T05:38:59.478Z,70.62
2023-11-18T05:41:40.872Z,70.62
2023-11-18T05:44:20.771Z,70.99
2023-11-18T05:46:48.985Z,71.19
2023-11-18T05:49:17.053Z,71.41
2023-11-18T05:51:47.446Z,71.25
2023-11-18T05:54:15.924Z,71.41
2023-11-18T05:56:49.951Z,71.89
2023-11-18T05:59:18.709Z,71.62
2023-11-18T06:01:48.815Z,71.35
2023-11-18T06:04:16.924Z,71.60
2023-11-18T06:06:44.919Z,71.94
2023-11-18T06:09:22.232Z,71.56
2023-11-18T06:11:55.619Z,71.70
2023-11-18T06:14:24.781Z,71.48
2023-11-18T06:16:53.203Z,71.64
2023-11-18T06:19:22.091Z,71.68
2023-11-18T06:21:50.975Z,71.84
2023-11-18T06:24:20.235Z,72.07
2023-11-18T06:26:50.574Z,71.79
2023-11-18T06:29:20.088Z,71.88
2023-11-18T06:31:48.216Z,71.80
2023-11-18T06:34:16.230Z,71.70
2023-11-18T06:36:46.696Z,71.96
2023-11-18T06:39:14.839Z,72.03
2023-11-18T06:41:49.820Z,71.91
2023-11-18T06:44:24.961Z,71.98
2023-11-18T06:46:54.590Z,71.96
2023-11-18T06:49:29.823Z,72.01
2023-11-18T06:52:04.230Z,71.88
2023-11-18T06:54:34.522Z,71.70
2023-11-18T06:57:02.608Z,71.78
2023-11-18T06:59:33.543Z,71.82
2023-11-18T07:02:07.730Z,71.78
2023-11-18T07:04:39.367Z,71.80
2023-11-18T07:07:10.037Z,71.93
2023-11-18T07:09:45.969Z,71.99
2023-11-18T07:12:18.446Z,71.91
2023-11-18T07:14:50.111Z,72.31
2023-11-18T07:17:20.090Z,72.05
2023-11-18T07:19:48.213Z,72.21
2023-11-18T07:22:16.270Z,72.05
2023-11-18T07:24:44.680Z,72.44
2023-11-18T07:27:15.549Z,71.92
2023-11-18T07:29:46.341Z,72.15
2023-11-18T07:32:16.466Z,72.45
2023-11-18T07:34:45.063Z,72.00
2023-11-18T07:37:14.144Z,72.25
2023-11-18T07:39:46.171Z,72.45
2023-11-18T07:42:19.069Z,72.53
2023-11-18T07:44:47.215Z,72.01
2023-11-18T07:47:17.395Z,72.07
2023-11-18T07:49:47.650Z,72.26
2023-11-18T07:52:15.758Z,72.11
2023-11-18T07:54:44.178Z,72.22
2023-11-18T07:57:21.109Z,72.00
2023-11-18T07:59:49.142Z,71.99
2023-11-18T08:02:20.178Z,72.06
2023-11-18T08:04:48.782Z,72.00
2023-11-18T08:07:22.262Z,71.98
2023-11-18T08:09:50.411Z,72.04
2023-11-18T08:12:18.527Z,72.09
2023-11-18T08:14:46.596Z,72.34
2023-11-18T08:17:14.684Z,72.00
2023-11-18T08:19:44.163Z,71.98
2023-11-18T08:22:13.078Z,71.79
2023-11-18T08:24:42.057Z,71.90
2023-11-18T08:27:11.163Z,72.01
2023-11-18T08:29:51.310Z,71.74
2023-11-18T08:32:20.052Z,72.11
2023-11-18T08:34:52.225Z,71.88
2023-11-18T08:37:20.284Z,71.97
2023-11-18T08:39:51.105Z,71.81
2023-11-18T08:42:20.318Z,71.93
2023-11-18T08:44:49.635Z,71.94
2023-11-18T08:47:17.713Z,71.97
2023-11-18T08:49:47.631Z,72.05
2023-11-18T08:52:19.498Z,71.90
2023-11-18T08:55:09.465Z,71.78
2023-11-18T08:57:49.559Z,71.75
2023-11-18T09:00:40.409Z,71.72
2023-11-18T09:03:18.771Z,71.54
2023-11-18T09:06:00.248Z,71.57
2023-11-18T09:08:33.443Z,71.83
2023-11-18T09:11:01.644Z,71.45
2023-11-18T09:13:31.117Z,71.29
2023-11-18T09:15:59.408Z,71.48
2023-11-18T09:18:28.963Z,71.23
2023-11-18T09:20:57.884Z,71.16
2023-11-18T09:23:26.771Z,71.21
2023-11-18T09:25:56.269Z,71.15
2023-11-18T09:28:29.655Z,71.11
2023-11-18T09:30:59.848Z,71.17
2023-11-18T09:33:30.272Z,71.01
2023-11-18T09:36:00.857Z,70.88
2023-11-18T09:38:32.708Z,70.93
2023-11-18T09:41:08.370Z,71.24
2023-11-18T09:43:43.781Z,70.98
2023-11-18T09:46:15.416Z,70.91
2023-11-18T09:48:47.609Z,70.88
2023-11-18T09:51:31.321Z,71.02
2023-11-18T09:54:01.937Z,71.18
2023-11-18T09:56:40.376Z,70.79
2023-11-18T09:59:17.496Z,70.88
2023-11-18T10:02:14.735Z,70.65
2023-11-18T10:04:43.061Z,70.98
2023-11-18T10:07:12.331Z,70.71
2023-11-18T10:09:51.655Z,70.97
2023-11-18T10:12:25.141Z,70.84
2023-11-18T10:15:09.367Z,71.12
2023-11-18T10:17:38.127Z,70.97
2023-11-18T10:20:14.215Z,71.10
2023-11-18T10:22:43.060Z,70.96
2023-11-18T10:25:17.055Z,70.95
2023-11-18T10:27:47.572Z,71.04
2023-11-18T10:30:22.862Z,71.06
2023-11-18T10:33:07.950Z,71.19
2023-11-18T10:35:36.166Z,71.28
2023-11-18T10:38:07.115Z,71.35
2023-11-18T10:40:37.742Z,71.12
2023-11-18T10:43:10.837Z,71.21
2023-11-18T10:45:48.297Z,71.30
2023-11-18T10:48:17.808Z,71.27
2023-11-18T10:50:48.124Z,71.26
2023-11-18T10:53:18.086Z,71.18
2023-11-18T10:55:46.333Z,71.28
2023-11-18T10:58:52.755Z,71.27
2023-11-18T11:01:29.851Z,71.21
2023-11-18T11:03:59.781Z,71.21
2023-11-18T11:06:42.940Z,71.15
2023-11-18T11:09:18.261Z,70.99
2023-11-18T11:12:07.397Z,71.04
2023-11-18T11:14:40.628Z,70.78
2023-11-18T11:17:16.423Z,71.03
2023-11-18T11:19:56.659Z,70.81
2023-11-18T11:22:28.627Z,70.83
2023-11-18T11:25:10.625Z,70.91
2023-11-18T11:27:50.339Z,70.73
2023-11-18T11:30:27.587Z,70.90
2023-11-18T11:33:00.687Z,70.45
2023-11-18T11:35:32.112Z,70.41
2023-11-18T11:38:05.088Z,70.36
2023-11-18T11:40:36.038Z,70.25
2023-11-18T11:43:06.336Z,70.20
2023-11-18T11:45:35.894Z,70.00
2023-11-18T11:48:17.664Z,70.06
2023-11-18T11:51:21.625Z,70.12
2023-11-18T11:53:53.604Z,70.11
2023-11-18T11:56:25.490Z,70.17
2023-11-18T11:58:54.916Z,70.09
2023-11-18T12:01:36.013Z,70.14
2023-11-18T12:04:08.270Z,70.13
2023-11-18T12:06:37.613Z,70.03
2023-11-18T12:09:08.419Z,70.03
2023-11-18T12:11:40.731Z,70.02
2023-11-18T12:14:23.097Z,70.19
2023-11-18T12:17:09.302Z,70.29
2023-11-18T12:19:49.237Z,70.09
2023-11-18T12:22:26.159Z,70.52
2023-11-18T12:25:37.884Z,70.37
2023-11-18T12:28:54.802Z,70.24
2023-11-18T12:32:10.688Z,70.33
2023-11-18T12:35:56.592Z,70.51
2023-11-18T12:40:04.637Z,70.38
2023-11-18T12:44:06.255Z,70.12
2023-11-18T13:03:28.993Z,70.07
2023-11-18T13:06:58.937Z,69.92
2023-11-18T13:10:32.386Z,69.62
2023-11-18T13:13:38.057Z,69.52
2023-11-18T13:20:37.898Z,69.37
2023-11-18T13:28:24.520Z,69.02
2023-11-18T13:34:48.249Z,68.68
2023-11-18T13:41:11.845Z,68.39
2023-11-18T13:49:13.609Z,68.61
2023-11-18T13:56:20.299Z,68.33
2023-11-18T14:12:06.059Z,68.16
2023-11-18T14:15:12.269Z,67.90
2023-11-18T14:18:36.799Z,67.83
2023-11-18T14:29:00.956Z,67.67
2023-11-18T14:34:43.137Z,67.40
2023-11-18T14:37:42.767Z,67.28
2023-11-18T14:44:19.670Z,67.59
2023-11-18T14:54:56.393Z,67.25
2023-11-18T15:04:38.017Z,66.80
2023-11-18T15:11:11.617Z,66.97
2023-11-18T15:14:40.248Z,66.82
2023-11-18T15:18:47.054Z,67.00
2023-11-18T15:42:43.683Z,66.64
2023-11-18T15:50:01.906Z,66.35
2023-11-18T15:57:35.770Z,66.22
2023-11-18T16:05:01.590Z,66.39
2023-11-18T16:16:33.150Z,66.30
2023-11-18T17:47:45.862Z,65.72
2023-11-18T17:50:24.460Z,65.62
2023-11-18T17:55:49.014Z,65.15
2023-11-18T17:58:19.981Z,65.12
2023-11-18T18:00:51.226Z,64.95
2023-11-18T18:09:06.606Z,64.95
2023-11-18T18:11:38.054Z,64.59
2023-11-18T18:16:59.979Z,64.73
2023-11-18T18:19:32.813Z,64.36
2023-11-18T18:22:11.142Z,64.30
2023-11-18T18:24:48.846Z,64.31
2023-11-18T18:27:17.808Z,64.21
2023-11-18T18:29:48.496Z,64.42
2023-11-18T18:32:20.438Z,64.58
2023-11-18T18:34:58.449Z,64.35
2023-11-18T18:37:36.467Z,64.43
2023-11-18T18:40:13.302Z,64.25
2023-11-18T18:42:58.228Z,64.28
2023-11-18T18:45:47.718Z,64.31
2023-11-18T18:48:28.055Z,64.52
2023-11-18T18:50:58.723Z,64.51
2023-11-18T18:54:00.901Z,64.55
2023-11-18T19:02:42.308Z,64.88
2023-11-18T19:05:38.941Z,64.69
2023-11-18T19:11:07.271Z,64.97
2023-11-18T19:14:01.299Z,64.54
2023-11-18T19:16:47.410Z,64.34
2023-11-18T19:19:23.322Z,64.18
2023-11-18T19:22:01.744Z,64.58
2023-11-18T19:24:56.415Z,64.53
2023-11-18T19:27:54.103Z,64.54
2023-11-18T19:30:38.363Z,64.28
2023-11-18T19:33:15.727Z,64.19
2023-11-18T19:35:56.156Z,64.25
2023-11-18T19:38:32.801Z,64.02
2023-11-18T19:41:01.919Z,63.95
2023-11-18T19:47:07.332Z,63.73
2023-11-18T19:49:59.527Z,63.50
2023-11-18T19:52:55.162Z,63.36
2023-11-18T19:58:47.462Z,63.37
2023-11-18T20:01:39.868Z,63.39
2023-11-18T20:04:11.027Z,63.19
2023-11-18T20:06:44.696Z,63.15
2023-11-18T20:09:27.589Z,62.98
2023-11-18T20:14:35.281Z,62.74
2023-11-18T20:20:24.701Z,62.82
2023-11-18T20:26:07.376Z,62.59
2023-11-18T20:28:47.955Z,62.92
2023-11-18T20:31:32.608Z,62.50
2023-11-18T20:34:31.650Z,62.37
2023-11-18T20:37:12.673Z,62.46
2023-11-18T20:39:51.257Z,62.47
2023-11-18T20:42:28.024Z,62.69
2023-11-18T20:45:04.298Z,62.46
2023-11-18T20:47:47.413Z,62.37
2023-11-18T20:50:47.055Z,62.18
2023-11-18T20:53:43.364Z,62.06
2023-11-18T20:56:24.591Z,62.15
2023-11-18T20:59:29.798Z,62.07
2023-11-18T21:04:56.279Z,61.86
2023-11-18T21:07:26.921Z,61.97
2023-11-18T21:15:49.236Z,62.14
2023-11-18T21:18:26.907Z,62.39
2023-11-18T21:24:09.233Z,62.29
2023-11-18T21:26:41.860Z,62.36
2023-11-18T21:29:14.770Z,62.21
2023-11-18T21:31:54.595Z,62.27
2023-11-18T21:34:40.065Z,62.29
2023-11-18T21:37:16.675Z,62.41
2023-11-18T21:39:53.283Z,62.44
2023-11-18T21:42:34.431Z,62.02
2023-11-18T21:45:04.814Z,62.08
2023-11-18T21:50:37.530Z,61.96
2023-11-18T21:53:08.117Z,61.83
2023-11-18T21:55:46.095Z,62.21
2023-11-18T21:58:19.311Z,61.77
2023-11-18T22:00:50.109Z,61.97
2023-11-18T22:03:20.728Z,61.73
2023-11-18T22:05:56.054Z,61.68
2023-11-18T22:08:28.599Z,61.82
2023-11-18T22:11:03.944Z,61.40
2023-11-18T22:16:47.566Z,61.25
2023-11-18T22:19:24.966Z,61.43
2023-11-18T22:22:04.229Z,61.45
2023-11-18T22:24:52.730Z,61.15
2023-11-18T22:27:31.307Z,61.48
2023-11-18T22:30:05.913Z,61.32
2023-11-18T22:32:56.245Z,61.54
2023-11-18T22:38:18.932Z,61.51
2023-11-18T22:40:51.145Z,61.77
2023-11-18T22:46:14.128Z,61.53
2023-11-18T22:48:58.815Z,61.26
2023-11-18T22:51:32.448Z,61.27
2023-11-18T22:54:14.332Z,61.51
2023-11-18T22:56:53.270Z,61.20
2023-11-18T23:02:52.773Z,61.30
2023-11-18T23:05:32.194Z,61.15
2023-11-18T23:08:39.156Z,61.33
2023-11-18T23:11:28.496Z,61.03
2023-11-18T23:14:09.831Z,61.36
2023-11-18T23:16:48.928Z,61.42
2023-11-18T23:19:36.269Z,61.23
2023-11-18T23:24:59.488Z,61.24
2023-11-18T23:27:33.987Z,61.31
2023-11-18T23:30:11.196Z,61.30
2023-11-18T23:32:50.337Z,61.44
2023-11-18T23:35:31.121Z,61.40
2023-11-18T23:38:03.914Z,61.35
2023-11-18T23:40:47.513Z,61.22
2023-11-18T23:43:17.326Z,61.28
2023-11-18T23:45:53.474Z,61.11
2023-11-18T23:48:31.533Z,60.98
2023-11-18T23:51:12.173Z,60.92
2023-11-18T23:53:47.483Z,60.74
2023-11-18T23:56:24.621Z,60.75
2023-11-18T23:58:58.059Z,60.71
